createdAt,value
2019-02-02T00:00:44.211Z,24.00
2019-02-02T00:01:47.953Z,19.07
2019-02-02T00:02:53.999Z,20.40
2019-02-02T00:03:57.634Z,19.90
2019-02-02T00:05:01.268Z,24.03
2019-02-02T00:06:05.497Z,21.60
2019-02-02T00:07:09.129Z,18.60
2019-02-02T00:08:12.825Z,14.70
2019-02-02T00:09:16.828Z,13.97
2019-02-02T00:10:20.464Z,14.03
2019-02-02T00:11:24.092Z,18.07
2019-02-02T00:12:27.723Z,10.83
2019-02-02T00:13:31.458Z,16.60
2019-02-02T00:14:35.097Z,13.33
2019-02-02T00:15:38.730Z,14.87
2019-02-02T00:16:42.786Z,12.93
2019-02-02T00:17:46.415Z,11.27
2019-02-02T00:18:50.088Z,12.40
2019-02-02T00:19:55.765Z,9.03
2019-02-02T00:20:59.142Z,17.20
2019-02-02T00:22:02.763Z,10.10
2019-02-02T00:23:06.399Z,10.90
2019-02-02T00:24:10.150Z,12.03
2019-02-02T00:25:14.083Z,16.40
2019-02-02T00:26:18.071Z,13.00
2019-02-02T00:27:21.702Z,11.50
2019-02-02T00:28:25.330Z,12.20
2019-02-02T00:29:28.998Z,11.17
2019-02-02T00:30:32.703Z,13.57
2019-02-02T00:31:36.348Z,13.30
2019-02-02T00:32:39.979Z,13.67
2019-02-02T00:33:43.611Z,10.93
2019-02-02T00:34:47.280Z,10.67
2019-02-02T00:35:50.935Z,11.10
2019-02-02T00:36:54.545Z,10.20
2019-02-02T00:37:58.171Z,6.97
2019-02-02T00:39:01.807Z,6.03
2019-02-02T00:40:11.055Z,5.47
2019-02-02T00:41:14.750Z,7.53
2019-02-02T00:42:18.429Z,8.90
2019-02-02T00:43:22.063Z,12.43
2019-02-02T00:44:25.694Z,10.00
2019-02-02T00:45:29.371Z,12.77
2019-02-02T00:46:33.354Z,21.37
2019-02-02T00:47:36.982Z,10.57
2019-02-02T00:48:40.617Z,17.43
2019-02-02T00:49:44.257Z,18.73
2019-02-02T00:50:47.897Z,17.70
2019-02-02T00:51:51.540Z,11.57
2019-02-02T00:52:55.167Z,17.37
2019-02-02T00:53:58.806Z,19.17
2019-02-02T00:55:02.442Z,13.03
2019-02-02T00:56:06.318Z,13.97
2019-02-02T00:57:10.291Z,10.77
2019-02-02T00:58:13.853Z,16.20
2019-02-02T00:59:17.491Z,17.80
2019-02-02T01:00:23.755Z,16.70
2019-02-02T01:01:27.829Z,22.03
2019-02-02T01:02:31.461Z,23.70
2019-02-02T01:03:35.297Z,29.97
2019-02-02T01:04:38.935Z,17.40
2019-02-02T01:05:42.949Z,18.10
2019-02-02T01:06:46.638Z,12.33
2019-02-02T01:07:50.661Z,11.67
2019-02-02T01:08:54.251Z,11.73
2019-02-02T01:09:57.882Z,20.57
2019-02-02T01:11:01.591Z,21.87
2019-02-02T01:12:05.360Z,33.23
2019-02-02T01:13:09.019Z,17.17
2019-02-02T01:14:12.651Z,29.57
2019-02-02T01:15:17.180Z,41.33
2019-02-02T01:16:20.817Z,47.33
2019-02-02T01:17:24.484Z,21.47
2019-02-02T01:18:28.499Z,28.80
2019-02-02T01:19:32.133Z,17.43
2019-02-02T01:20:35.766Z,20.23
2019-02-02T01:21:39.400Z,15.27
2019-02-02T01:22:43.165Z,21.53
2019-02-02T01:23:46.798Z,27.63
2019-02-02T01:24:50.442Z,30.40
2019-02-02T01:25:54.181Z,39.80
2019-02-02T01:26:57.825Z,41.97
2019-02-02T01:28:05.495Z,40.63
2019-02-02T01:29:06.970Z,37.40
2019-02-02T01:30:16.496Z,47.40
2019-02-02T01:31:20.089Z,36.90
2019-02-02T01:32:23.723Z,44.60
2019-02-02T01:33:27.395Z,64.93
2019-02-02T01:34:31.028Z,46.07
2019-02-02T01:35:34.668Z,42.53
2019-02-02T01:36:38.303Z,40.63
2019-02-02T01:37:41.942Z,44.93
2019-02-02T01:38:45.641Z,44.03
2019-02-02T01:39:49.278Z,38.27
2019-02-02T01:40:52.915Z,38.00
2019-02-02T01:41:56.553Z,33.83
2019-02-02T01:43:00.236Z,26.30
2019-02-02T01:44:03.901Z,30.17
2019-02-02T01:45:12.999Z,28.30
2019-02-02T01:46:16.741Z,26.03
2019-02-02T01:47:20.381Z,27.50
2019-02-02T01:48:24.009Z,31.33
2019-02-02T01:49:27.678Z,28.30
2019-02-02T01:50:31.312Z,23.27
2019-02-02T01:51:34.938Z,26.03
2019-02-02T01:52:38.575Z,24.87
2019-02-02T01:53:42.198Z,30.63
2019-02-02T01:54:45.875Z,25.13
2019-02-02T01:55:49.848Z,25.67
2019-02-02T01:56:53.486Z,24.50
2019-02-02T01:57:57.132Z,28.47
2019-02-02T01:59:01.083Z,29.30
2019-02-02T02:00:07.388Z,23.40
2019-02-02T02:01:11.022Z,24.57
2019-02-02T02:02:14.803Z,27.23
2019-02-02T02:03:18.437Z,26.90
2019-02-02T02:04:22.140Z,31.30
2019-02-02T02:05:25.892Z,25.23
2019-02-02T02:06:29.525Z,25.43
2019-02-02T02:07:33.161Z,26.07
2019-02-02T02:08:36.820Z,35.90
2019-02-02T02:09:40.456Z,30.70
2019-02-02T02:10:44.131Z,27.10
2019-02-02T02:11:47.769Z,24.27
2019-02-02T02:12:51.410Z,24.33
2019-02-02T02:13:55.053Z,27.87
2019-02-02T02:14:58.676Z,20.87
2019-02-02T02:16:02.850Z,23.00
2019-02-02T02:17:06.451Z,20.60
2019-02-02T02:18:10.187Z,21.67
2019-02-02T02:19:13.934Z,27.67
2019-02-02T02:20:19.667Z,31.73
2019-02-02T02:21:23.416Z,26.07
2019-02-02T02:22:27.060Z,25.83
2019-02-02T02:23:30.756Z,20.30
2019-02-02T02:24:34.396Z,17.37
2019-02-02T02:25:38.031Z,24.30
2019-02-02T02:26:41.743Z,21.60
2019-02-02T02:27:45.655Z,21.13
2019-02-02T02:28:49.350Z,20.53
2019-02-02T02:29:52.991Z,26.03
2019-02-02T02:30:56.630Z,23.50
2019-02-02T02:32:00.306Z,21.53
2019-02-02T02:33:03.938Z,27.27
2019-02-02T02:34:07.649Z,29.73
2019-02-02T02:35:11.849Z,30.87
2019-02-02T02:36:15.473Z,27.73
2019-02-02T02:37:19.166Z,36.50
2019-02-02T02:38:22.794Z,32.60
2019-02-02T02:39:26.424Z,36.10
2019-02-02T02:40:30.081Z,30.80
2019-02-02T02:41:33.804Z,31.23
2019-02-02T02:42:37.487Z,25.43
2019-02-02T02:43:41.265Z,19.50
2019-02-02T02:44:44.829Z,25.60
2019-02-02T02:45:48.528Z,22.80
2019-02-02T02:46:52.258Z,24.20
2019-02-02T02:47:55.927Z,24.47
2019-02-02T02:48:59.890Z,22.60
2019-02-02T02:50:04.340Z,24.63
2019-02-02T02:51:07.978Z,26.43
2019-02-02T02:52:11.628Z,21.63
2019-02-02T02:53:15.303Z,26.40
2019-02-02T02:54:18.928Z,24.77
2019-02-02T02:55:22.633Z,25.90
2019-02-02T02:56:26.272Z,24.50
2019-02-02T02:57:30.252Z,22.67
2019-02-02T02:58:41.709Z,24.00
2019-02-02T02:59:39.591Z,20.43
2019-02-02T03:00:43.226Z,24.70
2019-02-02T03:01:47.188Z,26.23
2019-02-02T03:02:50.991Z,24.67
2019-02-02T03:03:54.969Z,21.47
2019-02-02T03:04:58.607Z,23.50
2019-02-02T03:06:02.246Z,25.73
2019-02-02T03:07:06.197Z,22.80
2019-02-02T03:08:09.927Z,24.13
2019-02-02T03:09:13.661Z,26.70
2019-02-02T03:10:19.301Z,19.07
2019-02-02T03:11:22.935Z,18.13
2019-02-02T03:12:26.582Z,18.23
2019-02-02T03:13:30.233Z,16.03
2019-02-02T03:14:33.877Z,13.53
2019-02-02T03:15:37.513Z,19.30
2019-02-02T03:16:41.142Z,14.93
2019-02-02T03:17:44.973Z,12.27
2019-02-02T03:18:48.602Z,14.43
2019-02-02T03:19:52.211Z,13.73
2019-02-02T03:20:55.850Z,13.43
2019-02-02T03:21:59.490Z,15.30
2019-02-02T03:23:03.123Z,11.40
2019-02-02T03:24:06.758Z,11.17
2019-02-02T03:25:18.535Z,12.40
2019-02-02T03:26:22.175Z,10.57
2019-02-02T03:27:26.196Z,10.67
2019-02-02T03:28:29.816Z,10.07
2019-02-02T03:29:33.496Z,12.63
2019-02-02T03:30:37.112Z,11.40
2019-02-02T03:31:40.740Z,10.77
2019-02-02T03:32:44.676Z,12.00
2019-02-02T03:33:48.311Z,11.43
2019-02-02T03:34:51.938Z,12.27
2019-02-02T03:35:55.571Z,12.57
2019-02-02T03:36:59.212Z,13.00
2019-02-02T03:38:02.920Z,10.47
2019-02-02T03:39:09.463Z,14.03
2019-02-02T03:40:20.653Z,13.80
2019-02-02T03:41:24.334Z,14.63
2019-02-02T03:42:28.039Z,11.90
2019-02-02T03:43:31.590Z,14.30
2019-02-02T03:44:35.227Z,15.47
2019-02-02T03:45:40.947Z,14.30
2019-02-02T03:46:44.610Z,15.20
2019-02-02T03:47:48.248Z,14.53
2019-02-02T03:48:51.885Z,17.10
2019-02-02T03:49:55.520Z,14.07
2019-02-02T03:50:59.165Z,13.27
2019-02-02T03:52:02.825Z,18.47
2019-02-02T03:53:06.524Z,16.20
2019-02-02T03:54:10.165Z,17.77
2019-02-02T03:55:15.403Z,19.70
2019-02-02T03:56:19.046Z,20.10
2019-02-02T03:57:22.792Z,22.87
2019-02-02T03:58:26.432Z,17.03
2019-02-02T03:59:30.075Z,20.43
2019-02-02T04:00:33.710Z,26.33
2019-02-02T04:01:37.349Z,20.30
2019-02-02T04:02:41.440Z,23.33
2019-02-02T04:03:45.071Z,21.83
2019-02-02T04:04:49.031Z,16.80
2019-02-02T04:05:52.676Z,9.47
2019-02-02T04:06:56.368Z,11.50
2019-02-02T04:08:00.037Z,8.07
2019-02-02T04:09:05.178Z,7.17
2019-02-02T04:10:11.818Z,10.13
2019-02-02T04:11:15.453Z,8.00
2019-02-02T04:12:19.079Z,7.57
2019-02-02T04:13:22.861Z,9.17
2019-02-02T04:14:26.514Z,9.93
2019-02-02T04:15:30.144Z,8.13
2019-02-02T04:16:33.815Z,8.60
2019-02-02T04:17:37.443Z,5.90
2019-02-02T04:18:41.117Z,4.83
2019-02-02T04:19:45.077Z,6.43
2019-02-02T04:20:48.701Z,6.47
2019-02-02T04:21:52.250Z,4.33
2019-02-02T04:22:56.215Z,7.43
2019-02-02T04:24:00.229Z,7.90
2019-02-02T04:25:04.745Z,6.70
2019-02-02T04:26:08.373Z,5.70
2019-02-02T04:27:12.008Z,7.97
2019-02-02T04:28:15.631Z,8.33
2019-02-02T04:29:19.294Z,6.97
2019-02-02T04:30:25.276Z,13.53
2019-02-02T04:31:28.900Z,9.40
2019-02-02T04:32:32.531Z,12.37
2019-02-02T04:33:36.534Z,15.43
2019-02-02T04:34:40.316Z,7.83
2019-02-02T04:35:44.025Z,7.93
2019-02-02T04:36:47.665Z,10.03
2019-02-02T04:37:51.309Z,8.77
2019-02-02T04:38:54.949Z,13.80
2019-02-02T04:39:58.599Z,10.47
2019-02-02T04:41:02.221Z,11.77
2019-02-02T04:42:05.859Z,11.33
2019-02-02T04:43:09.561Z,13.80
2019-02-02T04:44:13.235Z,10.17
2019-02-02T04:45:17.871Z,13.63
2019-02-02T04:46:21.500Z,15.73
2019-02-02T04:47:25.133Z,14.57
2019-02-02T04:48:28.759Z,17.67
2019-02-02T04:49:32.424Z,19.33
2019-02-02T04:50:36.064Z,18.83
2019-02-02T04:51:39.698Z,16.73
2019-02-02T04:52:43.539Z,20.60
2019-02-02T04:53:47.175Z,24.47
2019-02-02T04:54:50.846Z,19.77
2019-02-02T04:55:54.487Z,19.33
2019-02-02T04:56:58.119Z,19.57
2019-02-02T04:58:01.754Z,20.50
2019-02-02T04:59:05.488Z,22.00
2019-02-02T05:00:12.220Z,23.90
2019-02-02T05:01:15.852Z,24.87
2019-02-02T05:02:19.491Z,32.70
2019-02-02T05:03:23.207Z,39.07
2019-02-02T05:04:26.845Z,43.53
2019-02-02T05:05:30.531Z,49.37
2019-02-02T05:06:34.165Z,48.77
2019-02-02T05:07:38.231Z,44.37
2019-02-02T05:08:41.865Z,49.10
2019-02-02T05:09:45.965Z,41.50
2019-02-02T05:10:49.987Z,66.40
2019-02-02T05:11:53.630Z,63.23
2019-02-02T05:12:57.268Z,62.70
2019-02-02T05:14:00.889Z,64.93
2019-02-02T05:15:06.131Z,59.80
2019-02-02T05:16:09.808Z,51.77
2019-02-02T05:17:13.451Z,52.07
2019-02-02T05:18:17.088Z,51.87
2019-02-02T05:19:20.721Z,47.03
2019-02-02T05:20:24.363Z,43.67
2019-02-02T05:21:28.034Z,43.30
2019-02-02T05:22:31.675Z,44.13
2019-02-02T05:23:35.247Z,43.47
2019-02-02T05:24:39.197Z,52.10
2019-02-02T05:25:42.840Z,51.97
2019-02-02T05:26:46.596Z,58.07
2019-02-02T05:27:50.235Z,60.93
2019-02-02T05:28:53.877Z,60.47
2019-02-02T05:29:57.522Z,54.60
2019-02-02T05:31:01.152Z,48.23
2019-02-02T05:32:04.828Z,45.10
2019-02-02T05:33:08.544Z,45.03
2019-02-02T05:34:12.181Z,46.20
2019-02-02T05:35:16.202Z,46.33
2019-02-02T05:36:19.832Z,41.27
2019-02-02T05:37:23.608Z,42.53
2019-02-02T05:38:27.244Z,30.73
2019-02-02T05:39:30.952Z,28.47
2019-02-02T05:40:34.934Z,27.10
2019-02-02T05:41:38.643Z,29.43
2019-02-02T05:42:42.305Z,32.27
2019-02-02T05:43:45.943Z,35.87
2019-02-02T05:44:49.577Z,30.33
2019-02-02T05:45:53.318Z,32.03
2019-02-02T05:46:56.945Z,32.00
2019-02-02T05:48:00.621Z,33.93
2019-02-02T05:49:04.785Z,29.90
2019-02-02T05:50:11.715Z,32.53
2019-02-02T05:51:15.426Z,27.53
2019-02-02T05:52:19.067Z,31.00
2019-02-02T05:53:22.813Z,29.13
2019-02-02T05:54:26.438Z,30.03
2019-02-02T05:55:30.084Z,29.27
2019-02-02T05:56:33.718Z,29.90
2019-02-02T05:57:37.351Z,33.23
2019-02-02T05:58:41.022Z,34.40
2019-02-02T05:59:52.547Z,40.57
2019-02-02T06:00:51.483Z,38.90
2019-02-02T06:01:55.127Z,35.77
2019-02-02T06:02:58.764Z,43.37
2019-02-02T06:04:02.725Z,35.47
2019-02-02T06:05:06.462Z,43.20
2019-02-02T06:06:10.429Z,48.37
2019-02-02T06:07:14.135Z,48.10
2019-02-02T06:08:17.859Z,39.37
2019-02-02T06:09:22.928Z,43.57
2019-02-02T06:10:26.658Z,44.67
2019-02-02T06:11:30.637Z,45.87
2019-02-02T06:12:34.268Z,54.27
2019-02-02T06:13:37.903Z,49.53
2019-02-02T06:14:41.576Z,71.47
2019-02-02T06:15:45.201Z,75.00
2019-02-02T06:16:48.841Z,102.73
2019-02-02T06:17:52.493Z,133.13
2019-02-02T06:18:56.132Z,152.83
2019-02-02T06:19:59.799Z,122.63
2019-02-02T06:21:03.436Z,141.57
2019-02-02T06:22:07.101Z,141.10
2019-02-02T06:23:10.745Z,168.33
2019-02-02T06:24:14.493Z,147.77
2019-02-02T06:25:18.516Z,134.87
2019-02-02T06:26:22.156Z,96.30
2019-02-02T06:27:25.787Z,68.13
2019-02-02T06:28:29.418Z,90.10
2019-02-02T06:29:33.061Z,92.77
2019-02-02T06:30:36.728Z,88.43
2019-02-02T06:31:40.371Z,90.60
2019-02-02T06:32:44.021Z,82.93
2019-02-02T06:33:47.621Z,86.07
2019-02-02T06:34:51.265Z,85.43
2019-02-02T06:35:55.052Z,72.90
2019-02-02T06:36:58.690Z,82.17
2019-02-02T06:38:02.385Z,77.53
2019-02-02T06:39:07.527Z,78.53
2019-02-02T06:40:13.578Z,79.93
2019-02-02T06:41:19.736Z,99.63
2019-02-02T06:42:23.415Z,105.20
2019-02-02T06:43:30.146Z,96.17
2019-02-02T06:44:32.463Z,118.00
2019-02-02T06:45:37.203Z,125.23
2019-02-02T06:46:43.642Z,129.60
2019-02-02T06:47:46.220Z,112.90
2019-02-02T06:48:50.242Z,96.53
2019-02-02T06:49:56.205Z,89.53
2019-02-02T06:50:59.968Z,89.43
2019-02-02T06:52:05.068Z,87.97
2019-02-02T06:53:08.717Z,81.23
2019-02-02T06:54:12.462Z,75.70
2019-02-02T06:55:17.213Z,81.80
2019-02-02T06:56:21.358Z,58.23
2019-02-02T06:57:25.323Z,60.37
2019-02-02T06:58:28.972Z,57.63
2019-02-02T06:59:32.718Z,61.07
2019-02-02T07:00:36.373Z,56.27
2019-02-02T07:01:40.017Z,53.83
2019-02-02T07:02:43.655Z,66.40
2019-02-02T07:03:47.301Z,65.93
2019-02-02T07:04:52.800Z,63.53
2019-02-02T07:05:56.495Z,81.30
2019-02-02T07:07:00.151Z,69.30
2019-02-02T07:08:03.805Z,69.03
2019-02-02T07:09:08.318Z,83.47
2019-02-02T07:10:17.715Z,80.23
2019-02-02T07:11:21.441Z,81.43
2019-02-02T07:12:25.095Z,77.00
2019-02-02T07:13:28.808Z,79.77
2019-02-02T07:14:32.515Z,79.73
2019-02-02T07:15:37.454Z,78.00
2019-02-02T07:16:41.159Z,76.07
2019-02-02T07:17:44.979Z,67.70
2019-02-02T07:18:48.702Z,70.40
2019-02-02T07:19:52.369Z,67.83
2019-02-02T07:20:56.112Z,69.67
2019-02-02T07:21:59.864Z,81.43
2019-02-02T07:23:03.683Z,81.20
2019-02-02T07:24:07.409Z,83.47
2019-02-02T07:25:11.748Z,87.13
2019-02-02T07:26:15.504Z,83.67
2019-02-02T07:27:22.247Z,88.20
2019-02-02T07:28:28.633Z,84.77
2019-02-02T07:29:32.460Z,84.23
2019-02-02T07:30:36.187Z,82.63
2019-02-02T07:31:39.933Z,73.80
2019-02-02T07:32:43.665Z,84.30
2019-02-02T07:33:48.664Z,83.93
2019-02-02T07:34:52.379Z,99.00
2019-02-02T07:35:56.105Z,83.37
2019-02-02T07:37:00.396Z,66.03
2019-02-02T07:38:04.185Z,50.43
2019-02-02T07:39:08.652Z,65.87
2019-02-02T07:40:17.500Z,59.27
2019-02-02T07:41:21.153Z,57.20
2019-02-02T07:42:26.231Z,44.70
2019-02-02T07:43:29.974Z,61.43
2019-02-02T07:44:33.795Z,45.77
2019-02-02T07:45:37.438Z,39.90
2019-02-02T07:46:45.269Z,34.03
2019-02-02T07:47:48.966Z,42.37
2019-02-02T07:48:53.067Z,35.60
2019-02-02T07:49:57.989Z,46.77
2019-02-02T07:51:03.168Z,58.53
2019-02-02T07:52:06.893Z,171.27
2019-02-02T07:53:11.422Z,58.67
2019-02-02T07:54:16.255Z,49.70
2019-02-02T07:55:21.722Z,52.00
2019-02-02T07:56:25.480Z,104.73
2019-02-02T07:57:29.090Z,56.77
2019-02-02T07:58:32.806Z,28.47
2019-02-02T07:59:36.544Z,17.80
2019-02-02T08:00:41.547Z,19.07
2019-02-02T08:01:45.675Z,18.10
2019-02-02T08:02:49.357Z,18.97
2019-02-02T08:03:53.074Z,21.83
2019-02-02T08:04:59.445Z,16.40
2019-02-02T08:06:03.164Z,24.33
2019-02-02T08:07:06.890Z,33.50
2019-02-02T08:08:11.794Z,69.33
2019-02-02T08:09:16.736Z,13.47
2019-02-02T08:10:23.297Z,30.47
2019-02-02T08:11:27.083Z,37.03
2019-02-02T08:12:30.747Z,29.47
2019-02-02T08:13:34.465Z,30.17
2019-02-02T08:14:38.127Z,18.77
2019-02-02T08:15:41.783Z,14.83
2019-02-02T08:16:45.560Z,10.27
2019-02-02T08:17:49.395Z,9.80
2019-02-02T08:18:53.157Z,10.27
2019-02-02T08:19:56.809Z,17.20
2019-02-02T08:21:00.476Z,13.07
2019-02-02T08:22:04.375Z,8.17
2019-02-02T08:23:08.210Z,11.47
2019-02-02T08:24:12.086Z,12.07
2019-02-02T08:25:18.642Z,11.77
2019-02-02T08:26:22.287Z,13.43
2019-02-02T08:27:26.056Z,28.30
2019-02-02T08:28:30.066Z,24.97
2019-02-02T08:29:33.773Z,21.93
2019-02-02T08:30:37.605Z,19.30
2019-02-02T08:31:41.289Z,15.03
2019-02-02T08:32:45.180Z,8.33
2019-02-02T08:33:48.872Z,8.77
2019-02-02T08:34:52.682Z,10.70
2019-02-02T08:35:56.429Z,13.03
2019-02-02T08:37:00.158Z,11.03
2019-02-02T08:38:04.310Z,12.50
2019-02-02T08:39:09.540Z,8.03
2019-02-02T08:40:16.909Z,11.30
2019-02-02T08:41:22.681Z,11.47
2019-02-02T08:42:26.449Z,10.10
2019-02-02T08:43:31.688Z,22.03
2019-02-02T08:44:35.416Z,14.90
2019-02-02T08:45:39.051Z,13.57
2019-02-02T08:46:42.839Z,11.27
2019-02-02T08:47:46.666Z,13.27
2019-02-02T08:48:50.339Z,16.67
2019-02-02T08:49:54.070Z,19.97
2019-02-02T08:50:57.801Z,17.30
2019-02-02T08:52:01.545Z,9.93
2019-02-02T08:53:05.683Z,10.77
2019-02-02T08:54:09.602Z,14.03
2019-02-02T08:55:13.705Z,13.00
2019-02-02T08:56:17.396Z,11.57
2019-02-02T08:57:21.121Z,12.50
2019-02-02T08:58:24.968Z,11.33
2019-02-02T08:59:28.980Z,9.07
2019-02-02T09:00:32.907Z,7.90
2019-02-02T09:01:36.968Z,8.63
2019-02-02T09:02:40.596Z,6.17
2019-02-02T09:03:44.390Z,8.70
2019-02-02T09:04:48.151Z,10.23
2019-02-02T09:05:51.889Z,7.83
2019-02-02T09:06:55.660Z,9.37
2019-02-02T09:07:59.381Z,10.77
2019-02-02T09:09:04.913Z,13.47
2019-02-02T09:10:17.122Z,8.67
2019-02-02T09:11:21.135Z,7.77
2019-02-02T09:12:24.854Z,15.53
2019-02-02T09:13:28.571Z,8.57
2019-02-02T09:14:32.598Z,9.70
2019-02-02T09:15:36.384Z,9.90
2019-02-02T09:16:40.033Z,9.60
2019-02-02T09:17:43.803Z,8.23
2019-02-02T09:18:47.414Z,8.70
2019-02-02T09:19:51.058Z,9.13
2019-02-02T09:20:54.742Z,12.33
2019-02-02T09:21:58.399Z,13.50
2019-02-02T09:23:06.253Z,15.83
2019-02-02T09:24:07.601Z,15.87
2019-02-02T09:25:13.727Z,14.40
2019-02-02T09:26:17.491Z,9.33
2019-02-02T09:27:21.143Z,14.27
2019-02-02T09:28:27.287Z,10.27
2019-02-02T09:29:30.924Z,10.17
2019-02-02T09:30:36.333Z,10.13
2019-02-02T09:31:40.135Z,6.27
2019-02-02T09:32:43.871Z,7.40
2019-02-02T09:33:47.617Z,7.90
2019-02-02T09:34:51.398Z,6.87
2019-02-02T09:35:55.251Z,9.70
2019-02-02T09:36:58.978Z,6.93
2019-02-02T09:38:02.703Z,7.03
2019-02-02T09:39:07.896Z,10.93
2019-02-02T09:40:14.726Z,4.23
2019-02-02T09:41:19.119Z,6.90
2019-02-02T09:42:22.839Z,4.00
2019-02-02T09:43:26.480Z,5.37
2019-02-02T09:44:30.225Z,10.37
2019-02-02T09:45:33.947Z,2.83
2019-02-02T09:46:37.712Z,8.00
2019-02-02T09:47:41.437Z,9.83
2019-02-02T09:48:45.213Z,4.87
2019-02-02T09:49:48.941Z,5.27
2019-02-02T09:50:53.030Z,5.83
2019-02-02T09:51:56.800Z,3.57
2019-02-02T09:53:00.448Z,6.13
2019-02-02T09:54:04.199Z,5.43
2019-02-02T09:55:13.885Z,10.77
2019-02-02T09:56:17.639Z,8.80
2019-02-02T09:57:21.387Z,5.70
2019-02-02T09:58:25.206Z,5.90
2019-02-02T09:59:28.951Z,8.20
2019-02-02T10:00:33.711Z,2.63
2019-02-02T10:01:37.404Z,4.23
2019-02-02T10:02:41.124Z,3.83
2019-02-02T10:03:45.239Z,6.27
2019-02-02T10:04:48.974Z,9.60
2019-02-02T10:05:52.812Z,11.57
2019-02-02T10:06:56.467Z,15.47
2019-02-02T10:08:00.268Z,13.93
2019-02-02T10:09:05.387Z,6.60
2019-02-02T10:10:12.023Z,14.37
2019-02-02T10:11:15.765Z,6.07
2019-02-02T10:12:21.171Z,4.10
2019-02-02T10:13:25.383Z,7.73
2019-02-02T10:14:29.150Z,7.63
2019-02-02T10:15:32.963Z,5.23
2019-02-02T10:16:36.762Z,5.30
2019-02-02T10:17:40.462Z,3.57
2019-02-02T10:18:44.193Z,5.63
2019-02-02T10:19:47.901Z,7.47
2019-02-02T10:21:03.332Z,7.57
2019-02-02T10:21:57.107Z,6.73
2019-02-02T10:23:01.873Z,9.20
2019-02-02T10:24:07.752Z,6.03
2019-02-02T10:25:14.383Z,5.03
2019-02-02T10:26:18.141Z,9.47
2019-02-02T10:27:21.859Z,6.80
2019-02-02T10:28:25.583Z,3.37
2019-02-02T10:29:29.368Z,9.33
2019-02-02T10:30:41.132Z,14.40
2019-02-02T10:31:44.899Z,12.47
2019-02-02T10:32:48.666Z,87.67
2019-02-02T10:33:52.510Z,14.90
2019-02-02T10:34:56.632Z,10.67
2019-02-02T10:36:00.310Z,7.10
2019-02-02T10:37:04.068Z,7.53
2019-02-02T10:38:07.855Z,14.50
2019-02-02T10:39:11.530Z,5.17
2019-02-02T10:40:15.949Z,6.73
2019-02-02T10:41:19.599Z,6.07
2019-02-02T10:42:23.324Z,2.47
2019-02-02T10:43:27.043Z,9.80
2019-02-02T10:44:30.789Z,6.00
2019-02-02T10:45:34.673Z,3.80
2019-02-02T10:46:38.443Z,7.83
2019-02-02T10:47:42.994Z,4.77
2019-02-02T10:48:46.969Z,3.43
2019-02-02T10:49:50.672Z,8.23
2019-02-02T10:50:54.324Z,128.97
2019-02-02T10:51:57.961Z,8.53
2019-02-02T10:53:01.639Z,442.50
2019-02-02T10:54:05.813Z,124.23
2019-02-02T10:55:12.443Z,23.00
2019-02-02T10:56:16.165Z,32.27
2019-02-02T10:57:19.907Z,8.17
2019-02-02T10:58:23.616Z,35.30
2019-02-02T10:59:27.348Z,47.33
2019-02-02T11:00:33.474Z,9.03
2019-02-02T11:01:37.298Z,65.63
2019-02-02T11:02:41.010Z,269.30
2019-02-02T11:03:44.740Z,12.13
2019-02-02T11:04:48.482Z,13.33
2019-02-02T11:05:52.271Z,7.40
2019-02-02T11:06:56.099Z,12.23
2019-02-02T11:07:59.942Z,7.87
2019-02-02T11:09:05.339Z,12.17
2019-02-02T11:10:12.169Z,9.30
2019-02-02T11:11:16.129Z,11.03
2019-02-02T11:12:19.804Z,22.70
2019-02-02T11:13:23.670Z,15.63
2019-02-02T11:14:27.477Z,4.50
2019-02-02T11:15:31.203Z,2.67
2019-02-02T11:16:34.939Z,6.10
2019-02-02T11:17:38.794Z,3.50
2019-02-02T11:18:42.588Z,4.63
2019-02-02T11:19:46.329Z,4.40
2019-02-02T11:20:50.249Z,6.60
2019-02-02T11:21:54.105Z,5.70
2019-02-02T11:22:57.946Z,7.77
2019-02-02T11:24:01.656Z,6.17
2019-02-02T11:25:08.177Z,4.83
2019-02-02T11:26:12.228Z,32.57
2019-02-02T11:27:16.006Z,8.83
2019-02-02T11:28:19.731Z,8.23
2019-02-02T11:29:23.434Z,4.70
2019-02-02T11:30:27.951Z,5.93
2019-02-02T11:31:31.705Z,13.97
2019-02-02T11:32:35.434Z,6.10
2019-02-02T11:33:39.181Z,6.63
2019-02-02T11:34:42.948Z,9.60
2019-02-02T11:35:46.661Z,6.40
2019-02-02T11:36:50.398Z,7.53
2019-02-02T11:37:54.113Z,5.27
2019-02-02T11:38:59.632Z,5.40
2019-02-02T11:40:05.382Z,6.80
2019-02-02T11:41:09.323Z,18.43
2019-02-02T11:42:13.050Z,8.10
2019-02-02T11:43:16.762Z,3.60
2019-02-02T11:44:20.476Z,2.50
2019-02-02T11:45:24.152Z,2.37
2019-02-02T11:46:27.789Z,7.97
2019-02-02T11:47:31.431Z,4.43
2019-02-02T11:48:35.097Z,2.83
2019-02-02T11:49:38.841Z,2.63
2019-02-02T11:50:42.598Z,4.53
2019-02-02T11:51:46.301Z,6.33
2019-02-02T11:52:50.054Z,4.73
2019-02-02T11:53:53.699Z,6.43
2019-02-02T11:54:57.381Z,6.63
2019-02-02T11:56:03.977Z,6.53
2019-02-02T11:57:08.190Z,6.60
2019-02-02T11:58:11.819Z,3.40
2019-02-02T11:59:15.543Z,4.10
2019-02-02T12:00:24.721Z,2.70
2019-02-02T12:01:28.691Z,3.37
2019-02-02T12:02:32.404Z,2.87
2019-02-02T12:03:36.117Z,3.53
2019-02-02T12:04:39.779Z,3.50
2019-02-02T12:05:43.435Z,3.53
2019-02-02T12:06:49.190Z,3.07
2019-02-02T12:07:52.571Z,7.20
2019-02-02T12:08:56.214Z,5.10
2019-02-02T12:10:00.384Z,3.37
2019-02-02T12:11:04.136Z,2.97
2019-02-02T12:12:08.200Z,2.97
2019-02-02T12:13:11.924Z,7.03
2019-02-02T12:14:15.691Z,7.30
2019-02-02T12:15:20.013Z,10.53
2019-02-02T12:16:23.659Z,6.97
2019-02-02T12:17:27.471Z,7.30
2019-02-02T12:18:31.196Z,7.20
2019-02-02T12:19:34.736Z,5.37
2019-02-02T12:20:38.438Z,5.87
2019-02-02T12:21:42.077Z,4.47
2019-02-02T12:22:45.880Z,4.83
2019-02-02T12:23:49.596Z,8.10
2019-02-02T12:24:53.330Z,5.13
2019-02-02T12:25:56.977Z,5.37
2019-02-02T12:27:00.712Z,7.97
2019-02-02T12:28:04.988Z,5.73
2019-02-02T12:29:08.699Z,6.13
2019-02-02T12:30:20.760Z,4.73
2019-02-02T12:31:24.483Z,4.93
2019-02-02T12:32:28.217Z,9.10
2019-02-02T12:33:32.359Z,4.73
2019-02-02T12:34:36.098Z,5.67
2019-02-02T12:35:39.828Z,8.47
2019-02-02T12:36:43.576Z,23.13
2019-02-02T12:37:47.403Z,17.13
2019-02-02T12:38:51.285Z,18.47
2019-02-02T12:39:54.930Z,18.60
2019-02-02T12:40:59.801Z,8.43
2019-02-02T12:42:03.530Z,9.70
2019-02-02T12:43:07.177Z,12.77
2019-02-02T12:44:10.953Z,12.63
2019-02-02T12:45:17.450Z,10.07
2019-02-02T12:46:21.158Z,10.30
2019-02-02T12:47:24.822Z,8.83
2019-02-02T12:48:28.511Z,9.67
2019-02-02T12:49:32.273Z,10.07
2019-02-02T12:50:35.997Z,5.50
2019-02-02T12:51:39.712Z,5.97
2019-02-02T12:52:43.571Z,5.40
2019-02-02T12:53:50.110Z,9.20
2019-02-02T12:54:53.771Z,8.43
2019-02-02T12:55:57.541Z,17.00
2019-02-02T12:57:01.256Z,8.17
2019-02-02T12:58:06.989Z,9.20
2019-02-02T12:59:10.698Z,12.00
2019-02-02T13:00:16.922Z,13.93
2019-02-02T13:01:20.667Z,19.67
2019-02-02T13:02:25.510Z,13.67
2019-02-02T13:03:29.590Z,10.83
2019-02-02T13:04:33.299Z,9.57
2019-02-02T13:05:39.117Z,6.83
2019-02-02T13:06:42.484Z,6.23
2019-02-02T13:07:46.629Z,5.77
2019-02-02T13:08:50.267Z,6.27
2019-02-02T13:09:53.997Z,10.30
2019-02-02T13:10:58.025Z,8.50
2019-02-02T13:12:01.716Z,8.13
2019-02-02T13:13:05.494Z,9.23
2019-02-02T13:14:09.285Z,5.83
2019-02-02T13:15:13.427Z,6.27
2019-02-02T13:16:17.157Z,7.70
2019-02-02T13:17:20.829Z,6.70
2019-02-02T13:18:25.625Z,8.00
2019-02-02T13:19:29.275Z,8.53
2019-02-02T13:20:33.006Z,6.10
2019-02-02T13:21:36.743Z,6.43
2019-02-02T13:22:40.426Z,8.93
2019-02-02T13:23:44.187Z,7.23
2019-02-02T13:24:48.253Z,6.13
2019-02-02T13:25:52.022Z,6.47
2019-02-02T13:26:55.726Z,7.20
2019-02-02T13:27:59.510Z,6.27
2019-02-02T13:29:03.248Z,8.07
2019-02-02T13:30:09.810Z,8.47
2019-02-02T13:31:13.472Z,7.80
2019-02-02T13:32:17.122Z,7.57
2019-02-02T13:33:20.890Z,8.43
2019-02-02T13:34:24.633Z,9.07
2019-02-02T13:35:30.263Z,8.87
2019-02-02T13:36:33.980Z,3.87
2019-02-02T13:37:37.702Z,6.80
2019-02-02T13:38:41.371Z,5.97
2019-02-02T13:39:45.111Z,5.77
2019-02-02T13:40:48.838Z,5.23
2019-02-02T13:41:52.559Z,6.00
2019-02-02T13:42:56.267Z,8.93
2019-02-02T13:43:59.953Z,6.63
2019-02-02T13:45:07.064Z,9.60
2019-02-02T13:46:13.998Z,6.23
2019-02-02T13:47:17.714Z,5.47
2019-02-02T13:48:21.451Z,7.20
2019-02-02T13:49:25.165Z,6.23
2019-02-02T13:50:28.909Z,5.87
2019-02-02T13:51:32.706Z,7.27
2019-02-02T13:52:36.426Z,7.80
2019-02-02T13:53:40.153Z,10.30